TimeCST,TemperatureF,Dew PointF,Humidity,Sea Level PressureIn,VisibilityMPH,Wind Direction,Wind SpeedMPH,Gust SpeedMPH,PrecipitationIn,Events,Conditions,WindDirDegrees,DateUTC
12:53 AM,70.0,68.0,93,29.93,10.0,SSE,8.1,-,0.00,,Mostly Cloudy,150,2011-11-26 06:53:00
1:53 AM,71.1,69.1,93,29.92,10.0,South,4.6,-,0.00,,Overcast,190,2011-11-26 07:53:00
2:18 AM,69.8,69.8,100,29.91,10.0,South,3.5,-,N/A,,Mostly Cloudy,170,2011-11-26 08:18:00
2:39 AM,69.8,69.8,100,29.91,10.0,SSE,5.8,-,N/A,,Mostly Cloudy,150,2011-11-26 08:39:00
2:53 AM,69.1,69.1,100,29.91,10.0,SE,3.5,-,N/A,,Mostly Cloudy,140,2011-11-26 08:53:00
2:59 AM,69.8,69.8,100,29.91,2.5,South,4.6,-,0.09,Rain,Heavy Rain,180,2011-11-26 08:59:00
3:07 AM,69.8,69.8,100,29.90,1.0,South,3.5,-,0.30,Rain,Heavy Rain,190,2011-11-26 09:07:00
3:27 AM,69.8,69.8,100,29.90,3.0,SSW,5.8,-,0.46,Rain,Light Rain,200,2011-11-26 09:27:00
3:38 AM,69.8,69.8,100,29.89,6.0,SE,4.6,-,0.47,Rain,Light Rain,140,2011-11-26 09:38:00
3:53 AM,70.0,70.0,100,29.89,8.0,ESE,5.8,-,0.47,Rain,Light Rain,120,2011-11-26 09:53:00
5:53 AM,69.1,69.1,100,29.89,10.0,SSE,5.8,-,0.01,,Overcast,150,2011-11-26 11:53:00
6:53 AM,69.1,69.1,100,29.90,8.0,SE,4.6,-,N/A,,Mostly Cloudy,130,2011-11-26 12:53:00
7:53 AM,-9999,-9999,N/A,29.91,10.0,SE,8.1,-,N/A,,Mostly Cloudy,140,2011-11-26 13:53:00
8:53 AM,73.4,71.6,94,29.91,10.0,South,9.2,-,N/A,,Overcast,170,2011-11-26 14:53:00
9:53 AM,73.0,71.1,93,29.93,10.0,South,8.1,-,N/A,,Mostly Cloudy,180,2011-11-26 15:53:00
10:22 AM,75.2,71.6,89,29.92,10.0,South,6.9,-,N/A,,Mostly Cloudy,190,2011-11-26 16:22:00
10:53 AM,75.0,71.1,87,29.91,10.0,South,13.8,-,N/A,,Mostly Cloudy,170,2011-11-26 16:53:00
11:19 AM,73.4,71.6,94,29.90,10.0,SSE,15.0,21.9,N/A,Thunderstorm,Thunderstorm,160,2011-11-26 17:19:00
11:26 AM,73.4,71.6,94,29.92,1.8,WSW,10.4,21.9,0.12,Rain-Thunderstorm,Heavy Thunderstorms and Rain,240,2011-11-26 17:26:00
11:28 AM,73.4,71.6,94,29.92,0.8,SW,8.1,-,0.22,Rain-Thunderstorm,Heavy Rain,230,2011-11-26 17:28:00
11:42 AM,71.6,71.6,100,29.92,2.0,South,17.3,25.3,0.36,Rain-Thunderstorm,Heavy Rain,190,2011-11-26 17:42:00
11:46 AM,69.8,69.8,100,29.92,1.5,SSW,16.1,23.0,0.44,Rain,Heavy Rain,210,2011-11-26 17:46:00
11:53 AM,69.1,69.1,100,29.91,0.8,SSW,10.4,21.9,0.59,Rain,Heavy Rain,210,2011-11-26 17:53:00
12:03 PM,69.8,69.8,100,29.91,1.0,SSW,8.1,20.7,0.16,Rain,Heavy Rain,210,2011-11-26 18:03:00
12:34 PM,64.4,64.4,100,29.92,4.0,NNW,20.7,32.2,0.48,Rain,Light Rain,340,2011-11-26 18:34:00
12:48 PM,64.4,64.4,100,29.92,10.0,NNW,15.0,25.3,0.48,Rain,Light Rain,340,2011-11-26 18:48:00
12:53 PM,64.9,64.9,100,29.92,10.0,NNW,13.8,-,0.48,,Overcast,340,2011-11-26 18:53:00
1:53 PM,64.0,60.1,87,29.92,10.0,North,16.1,-,N/A,,Overcast,350,2011-11-26 19:53:00
2:53 PM,64.9,61.0,87,29.94,10.0,NNW,13.8,-,N/A,,Overcast,330,2011-11-26 20:53:00
3:53 PM,64.0,60.1,87,29.96,10.0,NNW,19.6,25.3,N/A,,Overcast,340,2011-11-26 21:53:00
4:53 PM,62.1,55.9,80,29.99,10.0,NNW,17.3,25.3,0.00,,Mostly Cloudy,340,2011-11-26 22:53:00
5:53 PM,60.8,53.6,77,30.02,10.0,NNW,17.3,-,N/A,,Mostly Cloudy,340,2011-11-26 23:53:00
6:53 PM,60.1,48.0,64,30.08,10.0,NNW,26.5,35.7,N/A,,Overcast,330,2011-11-27 00:53:00
7:53 PM,57.0,46.9,69,30.13,10.0,NNW,24.2,34.5,N/A,,Mostly Cloudy,340,2011-11-27 01:53:00
8:53 PM,55.0,45.0,69,30.16,10.0,NNW,23.0,35.7,N/A,,Clear,330,2011-11-27 02:53:00
9:53 PM,55.4,42.8,63,30.18,10.0,NNW,24.2,35.7,N/A,,Clear,330,2011-11-27 03:53:00
10:53 PM,53.1,43.0,69,30.19,10.0,NNW,17.3,-,N/A,,Clear,330,2011-11-27 04:53:00
11:53 PM,52.0,42.1,69,30.20,10.0,NW,17.3,-,N/A,,Clear,320,2011-11-27 05:53:00